Time;durP1;ratioP1;P1;durP2;ratioP2;P2;SDS_P1;SDS_P2;PMS_P1;PMS_P2;Temp;Humidity;BMP_temperature;BMP_pressure;BME280_temperature;BME280_humidity;BME280_pressure;Samples;Min_cycle;Max_cycle;Signal;HPM_P1;HPM_P2
2020/12/16 03:46:59;;;;;;;32.80;16.05;;;4.00;99.90;;;;;;5568834;23;90448;-84
2020/12/16 03:49:24;;;;;;;32.78;15.02;;;4.00;99.90;;;;;;4948835;28;87182;-81
2020/12/16 03:51:58;;;;;;;34.75;16.13;;;4.00;99.90;;;;;;4944046;28;86603;-82
2020/12/16 03:54:24;;;;;;;27.80;15.95;;;4.10;99.90;;;;;;4938920;28;87081;-83
2020/12/16 03:56:50;;;;;;;32.83;16.00;;;4.10;99.90;;;;;;4934949;28;87120;-83
2020/12/16 03:59:16;;;;;;;28.42;16.55;;;4.30;99.90;;;;;;4928873;28;87050;-84
2020/12/16 04:01:42;;;;;;;29.48;15.60;;;;;;;;;;4936095;28;86885;-85
2020/12/16 04:04:08;;;;;;;32.85;15.90;;;4.20;99.90;;;;;;4936640;28;86354;-85
2020/12/16 04:06:34;;;;;;;27.38;15.73;;;4.20;99.90;;;;;;4938360;28;86971;-83
2020/12/16 04:09:00;;;;;;;32.58;16.30;;;4.30;99.90;;;;;;4948733;28;87000;-84
2020/12/16 04:11:26;;;;;;;25.73;14.48;;;4.60;99.90;;;;;;4934718;28;87804;-83
2020/12/16 04:13:52;;;;;;;25.30;13.95;;;4.50;99.90;;;;;;4951960;28;86178;-84
2020/12/16 04:16:20;;;;;;;24.60;15.20;;;4.40;99.90;;;;;;4959137;28;87587;-85
2020/12/16 04:18:47;;;;;;;25.17;14.45;;;4.50;99.90;;;;;;4948321;28;87409;-83
2020/12/16 04:21:13;;;;;;;23.52;13.60;;;4.40;99.90;;;;;;4952483;28;87025;-85
2020/12/16 04:23:39;;;;;;;26.17;14.60;;;4.40;99.90;;;;;;4943718;28;87216;-84
2020/12/16 04:26:05;;;;;;;30.83;15.50;;;4.60;99.90;;;;;;4948594;28;87371;-85
2020/12/16 04:28:30;;;;;;;27.48;15.23;;;4.60;99.90;;;;;;4931786;28;90729;-84
2020/12/16 04:30:56;;;;;;;23.83;14.88;;;4.80;99.90;;;;;;4942502;28;86918;-85
2020/12/16 04:33:22;;;;;;;24.55;15.00;;;4.60;99.90;;;;;;4927144;28;87458;-86
2020/12/16 04:35:48;;;;;;;24.08;14.35;;;4.80;99.90;;;;;;4941535;28;88294;-85
2020/12/16 04:38:14;;;;;;;22.30;13.52;;;4.90;99.90;;;;;;4945378;28;87287;-85
2020/12/16 04:40:40;;;;;;;23.70;12.98;;;4.70;99.90;;;;;;4953370;28;87279;-85
2020/12/16 04:43:08;;;;;;;25.40;13.15;;;4.80;99.90;;;;;;4934566;28;88394;-85
2020/12/16 04:45:41;;;;;;;22.67;14.10;;;4.80;99.90;;;;;;4950782;28;87238;-85
2020/12/16 04:48:11;;;;;;;24.17;13.00;;;5.20;99.90;;;;;;4952919;28;87097;-85
2020/12/16 04:50:38;;;;;;;23.23;13.48;;;5.10;99.90;;;;;;4953519;28;87866;-85
2020/12/16 04:53:06;;;;;;;21.45;13.05;;;5.10;99.90;;;;;;4944133;28;85797;-80
2020/12/16 04:55:33;;;;;;;21.42;13.48;;;5.20;99.90;;;;;;4941717;28;88381;-83
2020/12/16 04:58:00;;;;;;;23.70;14.57;;;5.30;99.90;;;;;;4942913;28;86932;-84
2020/12/16 05:00:27;;;;;;;23.17;13.50;;;5.20;99.90;;;;;;4931689;28;87556;-84
2020/12/16 05:02:59;;;;;;;21.80;13.65;;;5.20;99.90;;;;;;4932842;28;89122;-84
2020/12/16 05:05:26;;;;;;;23.85;12.80;;;5.20;99.90;;;;;;4938382;28;87493;-83
2020/12/16 05:07:52;;;;;;;19.08;11.85;;;5.30;99.90;;;;;;4939493;28;87001;-83
2020/12/16 05:10:38;;;;;;;17.52;10.93;;;5.10;99.90;;;;;;4949639;28;87026;-83
2020/12/16 05:13:05;;;;;;;18.98;11.73;;;5.10;99.90;;;;;;4947597;28;86836;-84
2020/12/16 05:15:31;;;;;;;21.25;11.57;;;5.10;99.90;;;;;;4940989;28;87213;-83
2020/12/16 05:18:07;;;;;;;20.88;13.13;;;5.20;99.90;;;;;;4942751;28;87354;-83
2020/12/16 05:20:33;;;;;;;23.38;14.32;;;5.30;99.90;;;;;;4930230;28;86254;-84
2020/12/16 05:23:01;;;;;;;18.52;11.48;;;5.40;99.90;;;;;;4944833;28;87029;-84
2020/12/16 05:25:27;;;;;;;21.67;11.30;;;5.40;99.90;;;;;;4948710;28;89124;-84
2020/12/16 05:27:53;;;;;;;19.35;12.20;;;5.40;99.90;;;;;;4948412;28;87361;-84
2020/12/16 05:30:19;;;;;;;20.05;11.60;;;5.30;99.90;;;;;;4950337;28;87017;-85
2020/12/16 05:32:45;;;;;;;22.40;12.75;;;5.30;99.90;;;;;;4949357;28;87930;-84
2020/12/16 05:35:21;;;;;;;21.23;12.30;;;5.30;99.90;;;;;;4942172;28;86971;-83
2020/12/16 05:37:47;;;;;;;21.65;12.82;;;5.30;99.90;;;;;;4946656;28;87018;-84
2020/12/16 05:40:15;;;;;;;24.08;13.07;;;5.30;99.90;;;;;;4950050;28;86164;-84
2020/12/16 05:42:45;;;;;;;23.10;14.00;;;5.10;99.90;;;;;;4938940;28;86176;-85
2020/12/16 05:45:17;;;;;;;23.70;13.15;;;5.00;99.90;;;;;;4948536;28;88359;-85
2020/12/16 05:48:02;;;;;;;;;;;5.00;99.90;;;;;;4942074;28;86870;-81
2020/12/16 05:50:48;;;;;;;20.35;11.32;;;5.00;99.90;;;;;;4935826;28;87985;-83
2020/12/16 05:53:22;;;;;;;26.58;13.10;;;4.90;99.90;;;;;;4942511;28;87176;-83
2020/12/16 05:56:01;;;;;;;22.27;13.10;;;4.60;99.90;;;;;;4936104;28;88281;-82
2020/12/16 05:58:31;;;;;;;24.27;13.55;;;4.90;99.90;;;;;;4946784;28;86833;-82
2020/12/16 06:01:01;;;;;;;26.30;13.60;;;4.80;99.90;;;;;;4944008;28;86673;-83
2020/12/16 06:03:35;;;;;;;21.27;13.65;;;4.90;99.90;;;;;;4946724;28;87231;-82
2020/12/16 06:06:09;;;;;;;24.95;12.35;;;4.90;99.90;;;;;;4948848;28;87508;-83
2020/12/16 06:08:37;;;;;;;28.63;14.13;;;4.90;99.90;;;;;;4949623;28;87306;-82
2020/12/16 06:11:12;;;;;;;29.67;14.18;;;4.90;99.90;;;;;;4939576;28;87074;-83
2020/12/16 06:13:43;;;;;;;30.52;14.32;;;4.90;99.90;;;;;;4940720;28;86628;-82
2020/12/16 06:16:09;;;;;;;29.00;15.07;;;4.90;99.90;;;;;;4932792;28;88642;-79
2020/12/16 06:18:47;;;;;;;32.38;15.95;;;4.90;99.90;;;;;;4946910;28;87299;-82
2020/12/16 06:21:14;;;;;;;32.42;14.40;;;5.00;99.90;;;;;;4936865;28;87135;-82
2020/12/16 06:23:41;;;;;;;28.70;13.95;;;4.60;99.90;;;;;;4938734;28;86316;-83
2020/12/16 06:26:15;;;;;;;28.60;14.57;;;4.80;99.90;;;;;;4946091;28;87991;-79
2020/12/16 06:28:43;;;;;;;28.60;14.10;;;4.70;99.90;;;;;;4936574;28;86930;-81
2020/12/16 06:31:32;;;;;;;26.65;13.40;;;4.80;99.90;;;;;;4945379;28;86895;-81
2020/12/16 06:34:02;;;;;;;35.17;14.50;;;4.80;99.90;;;;;;4932239;28;86374;-81
2020/12/16 06:36:33;;;;;;;28.13;13.97;;;4.70;99.90;;;;;;4942574;28;87249;-78
2020/12/16 06:38:59;;;;;;;;;;;4.70;99.90;;;;;;4930108;28;88174;-80
2020/12/16 06:41:26;;;;;;;24.38;13.48;;;4.70;99.90;;;;;;4935603;28;87087;-80
2020/12/16 06:43:57;;;;;;;26.95;14.82;;;4.70;99.90;;;;;;4955627;28;86587;-80
2020/12/16 06:46:32;;;;;;;38.73;16.93;;;4.80;99.90;;;;;;4957605;28;86740;-80
2020/12/16 06:48:58;;;;;;;40.13;16.95;;;4.80;99.90;;;;;;4952725;28;87135;-82
2020/12/16 06:51:26;;;;;;;45.50;18.30;;;4.80;99.90;;;;;;4944391;28;86131;-83
2020/12/16 06:54:15;;;;;;;34.80;14.77;;;4.90;99.90;;;;;;4948315;28;86946;-83
2020/12/16 06:56:43;;;;;;;41.05;16.42;;;4.90;99.90;;;;;;4944983;28;87734;-83
2020/12/16 06:59:12;;;;;;;27.50;15.40;;;4.60;99.90;;;;;;4944298;28;87152;-82
2020/12/16 07:01:37;;;;;;;32.78;15.15;;;4.90;99.90;;;;;;4943661;28;87037;-82
2020/12/16 07:04:03;;;;;;;34.58;16.40;;;4.80;99.90;;;;;;4947305;28;87045;-83
2020/12/16 07:06:29;;;;;;;33.20;16.20;;;4.80;99.90;;;;;;4945247;28;88263;-82
2020/12/16 07:09:13;;;;;;;29.42;15.48;;;4.80;99.90;;;;;;4946456;28;87389;-82
2020/12/16 07:11:40;;;;;;;28.88;15.75;;;4.90;99.90;;;;;;4934862;28;87071;-83
2020/12/16 07:14:10;;;;;;;26.83;15.02;;;4.80;99.90;;;;;;4942938;28;87102;-81
2020/12/16 07:16:36;;;;;;;30.65;16.13;;;4.90;99.90;;;;;;4936925;28;87655;-81
2020/12/16 07:19:02;;;;;;;26.33;15.68;;;4.90;99.90;;;;;;4943244;28;86847;-82
2020/12/16 07:21:31;;;;;;;23.77;13.10;;;4.80;99.90;;;;;;4936128;28;86895;-81
2020/12/16 07:24:07;;;;;;;18.90;12.20;;;4.50;99.90;;;;;;4946215;28;86185;-81
2020/12/16 07:26:48;;;;;;;21.13;11.45;;;4.50;99.90;;;;;;4946951;28;86964;-81
2020/12/16 07:29:26;;;;;;;19.73;10.73;;;4.40;99.90;;;;;;4946365;28;88128;-83
2020/12/16 07:32:13;;;;;;;18.00;11.73;;;4.40;99.90;;;;;;4945391;28;87883;-80
2020/12/16 07:34:42;;;;;;;22.08;11.63;;;4.30;99.90;;;;;;4946596;28;86940;-81
2020/12/16 07:37:08;;;;;;;18.13;10.48;;;4.10;99.90;;;;;;4939220;28;87037;-81
2020/12/16 07:39:34;;;;;;;17.83;10.35;;;4.10;99.90;;;;;;4936079;28;87831;-80
2020/12/16 07:42:00;;;;;;;24.80;13.70;;;4.10;99.90;;;;;;4943317;28;86972;-81
2020/12/16 07:44:26;;;;;;;19.50;12.63;;;4.10;99.90;;;;;;4932079;28;87832;-79
2020/12/16 07:46:59;;;;;;;22.75;14.02;;;4.30;99.90;;;;;;4943986;28;87236;-80
2020/12/16 07:49:27;;;;;;;26.95;14.85;;;4.30;99.90;;;;;;4950027;28;87538;-81
2020/12/16 07:52:00;;;;;;;25.35;14.02;;;4.40;99.90;;;;;;4950430;28;87163;-78
2020/12/16 07:54:26;;;;;;;22.88;13.70;;;4.50;99.90;;;;;;4941704;28;87071;-80
2020/12/16 07:56:51;;;;;;;25.27;14.48;;;4.50;99.90;;;;;;4938833;28;88021;-78
2020/12/16 07:59:17;;;;;;;22.20;13.05;;;4.70;99.90;;;;;;4934406;28;87989;-77
2020/12/16 08:01:43;;;;;;;22.52;13.93;;;4.60;99.90;;;;;;4937299;28;86854;-82
2020/12/16 08:04:15;;;;;;;24.60;13.27;;;4.50;99.90;;;;;;4930971;28;86969;-79
2020/12/16 08:06:42;;;;;;;21.90;13.35;;;4.50;99.90;;;;;;4921785;28;91014;-82
2020/12/16 08:09:08;;;;;;;19.30;11.93;;;4.50;99.90;;;;;;4942281;28;87510;-82
2020/12/16 08:11:34;;;;;;;22.63;13.20;;;4.40;99.90;;;;;;4924431;28;86909;-81
2020/12/16 08:14:05;;;;;;;21.05;13.50;;;4.40;99.90;;;;;;4944671;28;86257;-82
2020/12/16 08:16:31;;;;;;;;;;;4.40;99.90;;;;;;4941019;28;87093;-82
2020/12/16 08:18:57;;;;;;;19.05;12.48;;;4.60;99.90;;;;;;4946553;28;87613;-80
2020/12/16 08:21:24;;;;;;;20.30;12.48;;;4.80;99.90;;;;;;4930223;28;87480;-80
2020/12/16 08:23:54;;;;;;;23.40;13.80;;;5.50;99.90;;;;;;4946465;28;87017;-81
2020/12/16 08:26:22;;;;;;;21.45;12.93;;;5.30;99.90;;;;;;4926668;28;88917;-80
2020/12/16 08:28:49;;;;;;;21.17;13.73;;;5.60;99.90;;;;;;4930013;28;90353;-82
2020/12/16 08:31:22;;;;;;;21.58;12.35;;;5.70;99.90;;;;;;4941400;28;87072;-82
2020/12/16 08:33:49;;;;;;;16.77;11.98;;;5.70;99.90;;;;;;4939218;28;86492;-80
2020/12/16 08:36:21;;;;;;;24.95;14.15;;;5.60;99.90;;;;;;4924029;28;88814;-80
2020/12/16 08:38:49;;;;;;;21.23;13.18;;;5.70;99.90;;;;;;4942317;28;87145;-79
2020/12/16 08:41:25;;;;;;;24.35;14.75;;;5.90;99.90;;;;;;4953608;28;86934;-80
2020/12/16 08:43:52;;;;;;;21.08;11.63;;;6.00;99.90;;;;;;4947106;28;87034;-82
2020/12/16 08:46:23;;;;;;;20.10;13.02;;;6.20;99.90;;;;;;4915615;28;91265;-81
2020/12/16 08:48:53;;;;;;;23.23;14.85;;;6.10;99.90;;;;;;4936058;28;87765;-81
2020/12/16 08:51:22;;;;;;;22.92;14.07;;;6.30;99.90;;;;;;4951215;28;86872;-81
2020/12/16 08:54:06;;;;;;;24.58;14.48;;;6.30;99.90;;;;;;4932001;28;86728;-80
2020/12/16 08:56:39;;;;;;;21.60;13.95;;;6.40;99.90;;;;;;4938831;28;87556;-83
2020/12/16 08:59:07;;;;;;;23.08;14.10;;;6.60;99.90;;;;;;4945622;28;87912;-82
2020/12/16 09:01:34;;;;;;;24.02;14.18;;;6.90;99.90;;;;;;4920932;28;86937;-83
2020/12/16 09:04:00;;;;;;;27.73;14.50;;;6.80;99.90;;;;;;4936522;28;86141;-83
2020/12/16 09:06:26;;;;;;;23.60;14.05;;;6.80;99.90;;;;;;4943996;28;87033;-81
2020/12/16 09:08:52;;;;;;;24.42;15.73;;;7.00;99.90;;;;;;4940687;28;86576;-82
2020/12/16 09:11:22;;;;;;;23.55;14.40;;;7.50;99.90;;;;;;4943788;28;87870;-82
2020/12/16 09:13:49;;;;;;;23.60;14.57;;;8.20;99.90;;;;;;4942971;28;86631;-81
2020/12/16 09:16:22;;;;;;;23.58;14.20;;;8.90;99.90;;;;;;4936177;28;86929;-82
2020/12/16 09:18:49;;;;;;;21.15;14.18;;;9.40;99.90;;;;;;4934631;28;87501;-81
2020/12/16 09:21:33;;;;;;;21.10;13.80;;;9.70;99.30;;;;;;4934529;28;87044;-81
2020/12/16 09:24:00;;;;;;;19.08;12.48;;;10.20;95.60;;;;;;4943760;28;86849;-81
2020/12/16 09:26:43;;;;;;;16.98;11.82;;;10.90;94.70;;;;;;4941806;28;87258;-83
2020/12/16 09:29:20;;;;;;;21.17;13.80;;;11.80;88.60;;;;;;4942299;28;86462;-81
2020/12/16 09:31:46;;;;;;;19.98;12.57;;;12.30;82.60;;;;;;4940038;28;86162;-83
2020/12/16 09:34:12;;;;;;;22.92;12.85;;;12.60;82.00;;;;;;4950681;28;86931;-84
2020/12/16 09:36:38;;;;;;;20.88;13.18;;;12.70;79.40;;;;;;4950116;28;88118;-83
2020/12/16 09:39:06;;;;;;;20.60;13.18;;;12.60;78.70;;;;;;4938506;28;87161;-83
2020/12/16 09:41:43;;;;;;;20.13;12.93;;;12.40;79.00;;;;;;4939231;28;87016;-82
2020/12/16 09:44:31;;;;;;;20.23;12.60;;;12.40;78.70;;;;;;4941704;28;86967;-83
2020/12/16 09:47:16;;;;;;;21.60;13.77;;;12.10;77.90;;;;;;4934318;28;88192;-83
2020/12/16 09:49:44;;;;;;;18.52;12.20;;;11.90;76.60;;;;;;4947259;28;87192;-83
2020/12/16 09:52:31;;;;;;;18.80;12.90;;;11.70;79.40;;;;;;4955850;28;86730;-83
2020/12/16 09:55:10;;;;;;;18.83;12.98;;;11.80;76.00;;;;;;4945966;28;86316;-83
2020/12/16 09:57:36;;;;;;;21.83;13.05;;;11.70;78.50;;;;;;4945172;28;87978;-83
2020/12/16 10:00:02;;;;;;;20.38;13.38;;;11.70;78.70;;;;;;4950716;28;86822;-83
2020/12/16 10:02:28;;;;;;;19.80;13.57;;;11.70;78.50;;;;;;4941218;28;87693;-83
2020/12/16 10:04:53;;;;;;;20.33;12.52;;;11.50;78.30;;;;;;4944965;28;87097;-81
2020/12/16 10:07:19;;;;;;;18.63;12.48;;;11.30;79.00;;;;;;4948040;28;87006;-82
2020/12/16 10:09:52;;;;;;;18.45;11.95;;;11.00;79.50;;;;;;4943138;28;86665;-82
2020/12/16 10:12:19;;;;;;;16.55;11.60;;;11.00;79.70;;;;;;4946025;28;86874;-83
2020/12/16 10:14:47;;;;;;;15.80;10.88;;;10.80;79.60;;;;;;4948539;28;87132;-83
2020/12/16 10:17:13;;;;;;;14.90;11.02;;;10.60;79.80;;;;;;4946746;28;87714;-83
2020/12/16 10:19:39;;;;;;;12.35;9.38;;;10.60;80.90;;;;;;4942845;28;87190;-83
2020/12/16 10:22:05;;;;;;;14.02;10.07;;;10.80;80.60;;;;;;4952416;28;86866;-83
2020/12/16 10:24:30;;;;;;;15.75;9.68;;;11.10;79.30;;;;;;4944297;28;86769;-84
2020/12/16 10:26:56;;;;;;;13.00;9.60;;;11.30;78.40;;;;;;4948446;28;87798;-83
2020/12/16 10:29:22;;;;;;;17.50;10.23;;;11.70;76.80;;;;;;4924602;28;90029;-83
2020/12/16 10:31:49;;;;;;;16.08;9.57;;;11.80;74.90;;;;;;4947856;28;86872;-83
2020/12/16 10:34:16;;;;;;;12.80;9.32;;;11.50;76.50;;;;;;4949697;28;86985;-82
2020/12/16 10:36:42;;;;;;;10.73;8.98;;;11.30;77.20;;;;;;4951175;28;87074;-83
2020/12/16 10:39:08;;;;;;;13.02;10.20;;;11.00;78.40;;;;;;4947127;28;86943;-82
2020/12/16 10:41:34;;;;;;;12.38;9.57;;;10.80;78.70;;;;;;4946402;28;86716;-81
2020/12/16 10:44:00;;;;;;;22.85;13.70;;;10.90;79.70;;;;;;4951839;28;86013;-82
2020/12/16 10:46:26;;;;;;;20.98;14.38;;;11.20;80.70;;;;;;4924015;28;90110;-82
2020/12/16 10:48:52;;;;;;;23.50;15.02;;;11.60;79.70;;;;;;4945144;28;87085;-82
2020/12/16 10:51:17;;;;;;;20.20;14.23;;;11.90;77.80;;;;;;4949151;28;87764;-82
2020/12/16 10:53:43;;;;;;;24.67;15.15;;;12.20;77.50;;;;;;4937146;28;86663;-82
2020/12/16 10:56:09;;;;;;;21.85;15.02;;;12.60;75.20;;;;;;4941320;28;86986;-82
2020/12/16 10:58:34;;;;;;;21.00;13.73;;;12.70;74.60;;;;;;4938997;28;87143;-82
2020/12/16 11:01:00;;;;;;;21.48;13.75;;;12.70;74.30;;;;;;4947308;28;86942;-83
2020/12/16 11:03:25;;;;;;;22.15;14.48;;;12.80;74.50;;;;;;4934005;28;87117;-83
2020/12/16 11:05:51;;;;;;;20.88;13.15;;;12.80;74.20;;;;;;4945304;28;87621;-82
2020/12/16 11:08:17;;;;;;;25.00;14.95;;;12.90;74.20;;;;;;4934504;28;86353;-83
2020/12/16 11:10:49;;;;;;;22.65;15.10;;;13.00;75.40;;;;;;4942101;28;87027;-83
2020/12/16 11:13:15;;;;;;;21.77;13.52;;;13.30;73.60;;;;;;4940783;28;86758;-83
2020/12/16 11:15:41;;;;;;;24.80;14.88;;;13.40;72.20;;;;;;4945589;28;88182;-83
2020/12/16 11:18:06;;;;;;;20.90;14.77;;;13.30;71.90;;;;;;4943754;28;87955;-83
2020/12/16 11:20:32;;;;;;;21.95;14.15;;;13.50;71.00;;;;;;4946741;28;86262;-83
2020/12/16 11:22:58;;;;;;;24.05;15.27;;;13.50;70.70;;;;;;4955444;28;86770;-82
2020/12/16 11:25:27;;;;;;;21.13;14.00;;;13.70;70.40;;;;;;4954735;28;88605;-83
2020/12/16 11:27:53;;;;;;;23.15;15.20;;;14.00;69.60;;;;;;4955460;28;87025;-83
2020/12/16 11:30:18;;;;;;;21.70;14.65;;;14.40;68.30;;;;;;4947192;28;86793;-83
2020/12/16 11:32:44;;;;;;;22.52;14.68;;;14.70;67.30;;;;;;4948866;28;85815;-83
2020/12/16 11:35:10;;;;;;;21.73;14.38;;;14.90;66.80;;;;;;4951319;28;87693;-84
2020/12/16 11:37:39;;;;;;;21.08;15.27;;;15.40;66.10;;;;;;4949825;28;87232;-83
2020/12/16 11:40:05;;;;;;;22.27;14.38;;;15.80;64.40;;;;;;4954561;28;87787;-85
2020/12/16 11:42:31;;;;;;;20.40;13.82;;;16.10;63.00;;;;;;4941938;28;86954;-84
2020/12/16 11:44:57;;;;;;;20.95;13.80;;;16.20;62.10;;;;;;4949883;28;87694;-84
2020/12/16 11:47:23;;;;;;;19.42;14.48;;;16.40;61.60;;;;;;4924800;28;90183;-85
2020/12/16 11:49:49;;;;;;;21.10;13.75;;;16.80;60.30;;;;;;4930567;28;86961;-84
2020/12/16 11:52:14;;;;;;;17.73;13.68;;;17.00;59.30;;;;;;4931086;28;87082;-85
2020/12/16 11:54:40;;;;;;;19.15;14.15;;;17.10;59.20;;;;;;4932482;28;86765;-85
2020/12/16 11:57:06;;;;;;;25.88;14.50;;;17.30;58.70;;;;;;4931473;28;87887;-84
2020/12/16 11:59:32;;;;;;;20.17;14.30;;;17.70;57.60;;;;;;4929663;28;87061;-85
2020/12/16 12:02:00;;;;;;;19.20;14.35;;;17.90;56.50;;;;;;4930904;28;86811;-85
2020/12/16 12:04:26;;;;;;;18.80;13.85;;;18.30;56.10;;;;;;4921385;28;88196;-84
2020/12/16 12:06:52;;;;;;;20.67;15.15;;;18.80;55.60;;;;;;4926292;28;86911;-85
2020/12/16 12:09:18;;;;;;;18.73;13.65;;;19.40;53.90;;;;;;4925713;28;87049;-85
2020/12/16 12:11:44;;;;;;;16.80;13.27;;;19.70;52.80;;;;;;4929946;28;86893;-79
2020/12/16 12:14:10;;;;;;;17.58;13.15;;;19.60;52.60;;;;;;4925173;28;86905;-82
2020/12/16 12:16:35;;;;;;;18.05;13.25;;;19.10;52.20;;;;;;4927022;28;87009;-83
2020/12/16 12:19:01;;;;;;;17.88;12.98;;;18.40;53.10;;;;;;4928324;28;87011;-85
2020/12/16 12:21:27;;;;;;;21.13;15.23;;;17.60;55.10;;;;;;4927452;28;86378;-84
2020/12/16 12:23:53;;;;;;;17.75;13.00;;;16.70;57.60;;;;;;4928722;28;87516;-84
2020/12/16 12:26:18;;;;;;;17.33;12.63;;;16.10;59.40;;;;;;4931476;28;87992;-83
2020/12/16 12:28:44;;;;;;;19.33;13.57;;;15.80;60.80;;;;;;4920227;28;87846;-81
2020/12/16 12:31:10;;;;;;;18.48;13.73;;;15.60;61.20;;;;;;4930023;28;86938;-84
2020/12/16 12:33:36;;;;;;;19.90;13.43;;;15.40;62.20;;;;;;4933242;28;87206;-83
2020/12/16 12:36:02;;;;;;;17.45;12.90;;;15.00;63.00;;;;;;4931652;28;87359;-81
2020/12/16 12:38:28;;;;;;;17.23;12.55;;;14.70;64.30;;;;;;4929776;28;87066;-83
2020/12/16 12:40:54;;;;;;;19.50;13.38;;;14.40;64.80;;;;;;4928603;28;87080;-83
2020/12/16 12:43:19;;;;;;;19.65;12.95;;;14.20;65.60;;;;;;4927261;28;87501;-82
2020/12/16 12:45:45;;;;;;;17.13;11.68;;;14.00;66.40;;;;;;4929858;28;86323;-83
2020/12/16 12:48:11;;;;;;;11.75;8.35;;;13.80;67.50;;;;;;4944956;28;86997;-82
2020/12/16 12:50:37;;;;;;;13.10;7.00;;;13.40;66.20;;;;;;4945598;28;86771;-83
2020/12/16 12:53:03;;;;;;;8.35;6.70;;;13.20;65.50;;;;;;4937481;28;88281;-83
2020/12/16 12:55:28;;;;;;;17.17;11.13;;;12.80;67.10;;;;;;4950232;28;87088;-82
2020/12/16 12:57:54;;;;;;;16.33;11.85;;;12.80;69.00;;;;;;4950011;28;86757;-82
2020/12/16 13:00:20;;;;;;;22.13;13.88;;;12.80;71.10;;;;;;4940822;28;86737;-83
2020/12/16 13:02:45;;;;;;;18.55;13.18;;;12.70;71.80;;;;;;4927331;28;89116;-83
2020/12/16 13:05:11;;;;;;;18.40;13.95;;;12.50;73.40;;;;;;4944900;28;88041;-81
2020/12/16 13:07:37;;;;;;;20.10;13.88;;;12.40;74.10;;;;;;4943033;28;86680;-83
2020/12/16 13:10:07;;;;;;;17.75;13.63;;;12.40;74.70;;;;;;4942561;28;86242;-82
2020/12/16 13:12:33;;;;;;;21.48;14.85;;;12.40;75.20;;;;;;4945300;28;86934;-83
2020/12/16 13:14:58;;;;;;;22.23;14.65;;;12.80;75.50;;;;;;4932119;28;87377;-84
2020/12/16 13:17:24;;;;;;;27.33;14.13;;;13.60;73.60;;;;;;4944479;28;87637;-84
2020/12/16 13:19:50;;;;;;;18.50;13.63;;;14.40;71.00;;;;;;4939629;28;86653;-84
2020/12/16 13:22:19;;;;;;;18.88;13.45;;;15.10;68.80;;;;;;4950790;28;87686;-84
2020/12/16 13:24:45;;;;;;;20.20;14.10;;;15.60;65.90;;;;;;4942463;28;87866;-84
2020/12/16 13:27:11;;;;;;;18.40;13.75;;;16.10;64.00;;;;;;4948675;28;86999;-84
2020/12/16 13:29:36;;;;;;;20.95;14.80;;;16.40;62.00;;;;;;4942521;28;87111;-84
2020/12/16 13:32:02;;;;;;;17.13;12.93;;;16.70;61.80;;;;;;4941870;28;87435;-84
2020/12/16 13:34:28;;;;;;;19.75;14.23;;;16.90;60.90;;;;;;4943781;28;86248;-84
2020/12/16 13:36:53;;;;;;;17.55;13.32;;;17.10;60.30;;;;;;4946472;28;86236;-84
2020/12/16 13:39:19;;;;;;;16.75;12.77;;;17.00;59.40;;;;;;4953425;28;86919;-85
2020/12/16 13:41:49;;;;;;;18.25;12.90;;;17.10;59.30;;;;;;4952913;28;87871;-85
2020/12/16 13:44:16;;;;;;;18.05;13.43;;;17.00;58.50;;;;;;4926110;28;89272;-85
2020/12/16 13:46:42;;;;;;;19.52;14.40;;;16.30;59.00;;;;;;4947847;28;86772;-84
2020/12/16 13:49:08;;;;;;;21.15;14.40;;;15.70;60.70;;;;;;4949830;28;86184;-84
2020/12/16 13:51:34;;;;;;;20.75;13.52;;;14.90;62.40;;;;;;4949401;28;86947;-83
2020/12/16 13:54:00;;;;;;;21.13;13.77;;;14.40;63.80;;;;;;4945780;28;86993;-84
2020/12/16 13:56:27;;;;;;;23.42;14.45;;;13.80;65.70;;;;;;4946612;28;86658;-83
2020/12/16 13:58:59;;;;;;;26.13;15.55;;;13.20;67.60;;;;;;4942126;28;85931;-83
2020/12/16 14:01:26;;;;;;;23.83;15.63;;;12.80;69.10;;;;;;4944506;28;87008;-84
2020/12/16 14:03:52;;;;;;;25.00;15.70;;;12.50;70.20;;;;;;4935925;28;86731;-82
2020/12/16 14:06:18;;;;;;;23.33;15.77;;;12.20;71.00;;;;;;4949445;28;87901;-83
2020/12/16 14:08:44;;;;;;;25.05;15.82;;;12.10;71.80;;;;;;4939259;28;87119;-83
2020/12/16 14:11:11;;;;;;;22.42;15.07;;;11.70;74.20;;;;;;4947232;28;86959;-83
2020/12/16 14:13:39;;;;;;;22.95;16.33;;;11.60;74.80;;;;;;4945020;28;86877;-83
2020/12/16 14:16:11;;;;;;;23.80;15.32;;;11.60;74.70;;;;;;4943443;28;87105;-83
2020/12/16 14:18:38;;;;;;;25.60;16.13;;;11.60;75.10;;;;;;4949919;28;87091;-83
2020/12/16 14:21:05;;;;;;;21.73;16.60;;;11.60;75.20;;;;;;4941984;28;90006;-83
2020/12/16 14:23:31;;;;;;;22.15;14.13;;;11.70;75.30;;;;;;4951115;28;86334;-83
2020/12/16 14:25:57;;;;;;;23.63;15.15;;;11.80;74.90;;;;;;4923550;28;87001;-83
2020/12/16 14:28:23;;;;;;;27.13;15.07;;;11.80;75.20;;;;;;4940902;28;86914;-83
2020/12/16 14:30:49;;;;;;;24.85;15.73;;;11.80;75.10;;;;;;4946433;28;88744;-83
2020/12/16 14:33:15;;;;;;;23.20;15.80;;;11.60;75.30;;;;;;4932650;28;87983;-83
2020/12/16 14:35:40;;;;;;;25.52;15.63;;;11.50;75.80;;;;;;4945498;28;87229;-83
2020/12/16 14:38:07;;;;;;;25.00;16.17;;;11.20;76.90;;;;;;4943208;28;87128;-83
2020/12/16 14:40:33;;;;;;;26.13;15.43;;;10.80;77.80;;;;;;4938982;28;86910;-83
2020/12/16 14:42:58;;;;;;;26.30;15.07;;;10.50;78.00;;;;;;4937937;28;86905;-83
2020/12/16 14:45:24;;;;;;;26.98;16.35;;;10.30;78.90;;;;;;4943560;28;86947;-84
2020/12/16 14:47:52;;;;;;;28.52;17.90;;;10.00;79.90;;;;;;4945122;28;86724;-82
2020/12/16 14:50:18;;;;;;;25.52;16.65;;;9.70;81.10;;;;;;4950094;28;87013;-83
2020/12/16 14:52:44;;;;;;;24.42;15.07;;;9.40;82.10;;;;;;4932589;28;87170;-83
2020/12/16 14:55:10;;;;;;;31.13;17.52;;;9.20;83.00;;;;;;4936922;28;87187;-83
2020/12/16 14:57:36;;;;;;;28.40;16.88;;;8.90;84.50;;;;;;4943526;28;86433;-82
2020/12/16 15:00:04;;;;;;;26.08;17.25;;;8.70;86.10;;;;;;4940800;28;87585;-82
2020/12/16 15:02:30;;;;;;;27.42;17.95;;;8.50;87.70;;;;;;4941548;28;87431;-82
2020/12/16 15:04:57;;;;;;;33.13;19.08;;;8.30;89.10;;;;;;4946986;28;87122;-83
2020/12/16 15:07:38;;;;;;;29.58;17.10;;;8.10;90.30;;;;;;4892730;28;86891;-82
2020/12/16 15:10:05;;;;;;;34.88;18.77;;;7.90;91.10;;;;;;4928307;28;88125;-83
2020/12/16 15:12:31;;;;;;;28.80;17.55;;;7.70;92.00;;;;;;4938504;28;86555;-82
2020/12/16 15:14:57;;;;;;;26.67;16.30;;;7.60;92.50;;;;;;4952756;28;87066;-83
2020/12/16 15:17:24;;;;;;;24.63;15.60;;;7.40;94.00;;;;;;4946567;28;86858;-83
2020/12/16 15:19:50;;;;;;;26.08;16.92;;;7.30;95.00;;;;;;4937215;28;88547;-82
2020/12/16 15:22:16;;;;;;;29.17;16.30;;;7.10;96.10;;;;;;4931080;28;87202;-83
2020/12/16 15:24:41;;;;;;;28.60;15.82;;;7.10;96.50;;;;;;4933186;28;87032;-83
2020/12/16 15:27:07;;;;;;;28.00;16.92;;;6.90;97.30;;;;;;4945168;28;86922;-83
2020/12/16 15:29:33;;;;;;;29.77;16.88;;;6.80;98.00;;;;;;4941977;28;87193;-81
2020/12/16 15:31:58;;;;;;;27.33;15.82;;;6.60;99.30;;;;;;4950363;28;86504;-83
2020/12/16 15:34:26;;;;;;;28.75;16.27;;;6.50;99.90;;;;;;4931535;28;86942;-83
2020/12/16 15:36:58;;;;;;;27.17;16.05;;;6.40;99.90;;;;;;4944094;28;86101;-81
2020/12/16 15:39:25;;;;;;;26.15;15.73;;;6.30;99.90;;;;;;4947220;28;87024;-82
2020/12/16 15:41:52;;;;;;;25.25;16.27;;;6.20;99.90;;;;;;4936998;28;86840;-81
2020/12/16 15:44:18;;;;;;;27.33;16.52;;;6.20;99.90;;;;;;4941917;28;87653;-81
2020/12/16 15:46:46;;;;;;;30.20;17.35;;;6.10;99.90;;;;;;4929084;28;87013;-82
2020/12/16 15:49:11;;;;;;;25.40;15.82;;;6.10;99.90;;;;;;4930485;28;88591;-81
2020/12/16 15:51:37;;;;;;;27.58;16.52;;;6.00;99.90;;;;;;4935723;28;87149;-80
2020/12/16 15:54:03;;;;;;;29.92;18.30;;;6.00;99.90;;;;;;4937079;28;86983;-82
2020/12/16 15:56:31;;;;;;;25.70;14.82;;;5.90;99.90;;;;;;4948643;28;86460;-82
2020/12/16 15:58:57;;;;;;;29.77;18.55;;;5.80;99.90;;;;;;4950192;28;87384;-82
2020/12/16 16:01:23;;;;;;;28.95;17.98;;;5.80;99.90;;;;;;4948462;28;87479;-82
2020/12/16 16:03:48;;;;;;;31.95;18.77;;;5.80;99.90;;;;;;4953211;28;86293;-82
2020/12/16 16:06:14;;;;;;;36.10;17.10;;;5.80;99.90;;;;;;4950280;28;86636;-82
2020/12/16 16:08:40;;;;;;;35.45;17.33;;;5.80;99.90;;;;;;4944795;28;88301;-83
2020/12/16 16:11:07;;;;;;;35.58;17.27;;;5.80;99.90;;;;;;4944323;28;88944;-84
2020/12/16 16:13:36;;;;;;;31.20;16.10;;;5.90;99.90;;;;;;4954958;28;86859;-83
2020/12/16 16:16:03;;;;;;;44.85;19.85;;;5.90;99.90;;;;;;4957528;28;86706;-82
2020/12/16 16:18:28;;;;;;;47.88;19.83;;;5.90;99.90;;;;;;4945248;28;86637;-82
2020/12/16 16:20:54;;;;;;;42.08;19.23;;;5.90;99.90;;;;;;4952217;28;87004;-82
2020/12/16 16:23:20;;;;;;;37.63;17.92;;;5.90;99.90;;;;;;4952897;28;86265;-82